createdAt,value
2018-05-09T00:02:09.929Z,99.50
2018-05-09T00:04:38.042Z,99.40
2018-05-09T00:07:06.911Z,99.10
2018-05-09T00:09:35.023Z,99.10
2018-05-09T00:12:03.248Z,99.10
2018-05-09T00:14:31.347Z,99.30
2018-05-09T00:17:00.279Z,99.30
2018-05-09T00:19:29.426Z,99.30
2018-05-09T00:21:57.585Z,99.10
2018-05-09T00:24:25.708Z,99.50
2018-05-09T00:26:53.783Z,99.70
2018-05-09T00:29:27.226Z,99.80
2018-05-09T00:31:55.308Z,99.90
2018-05-09T00:34:23.377Z,99.90
2018-05-09T00:36:51.450Z,99.40
2018-05-09T00:39:19.531Z,98.70
2018-05-09T00:41:47.690Z,98.70
2018-05-09T00:44:16.454Z,99.80
2018-05-09T00:46:44.526Z,99.80
2018-05-09T00:49:14.567Z,99.90
2018-05-09T00:51:42.643Z,99.90
2018-05-09T00:54:28.754Z,99.90
2018-05-09T00:56:57.628Z,99.90
2018-05-09T00:59:25.726Z,99.90
2018-05-09T01:01:54.556Z,99.90
2018-05-09T01:04:22.642Z,99.90
2018-05-09T01:06:50.710Z,99.90
2018-05-09T01:09:18.798Z,99.90
2018-05-09T01:11:46.879Z,99.80
2018-05-09T01:14:14.959Z,99.90
2018-05-09T01:16:43.810Z,99.90
2018-05-09T01:19:12.814Z,99.90
2018-05-09T01:21:40.898Z,99.90
2018-05-09T01:24:08.961Z,99.90
2018-05-09T01:26:37.065Z,99.90
2018-05-09T01:29:06.948Z,99.90
2018-05-09T01:31:35.109Z,99.90
2018-05-09T01:34:03.223Z,99.90
2018-05-09T01:36:31.324Z,99.90
2018-05-09T01:39:09.475Z,99.90
2018-05-09T01:41:37.607Z,99.90
2018-05-09T01:44:05.791Z,99.90
2018-05-09T01:46:33.931Z,99.90
2018-05-09T01:49:21.450Z,99.90
2018-05-09T01:51:49.643Z,99.90
2018-05-09T01:54:17.751Z,99.90
2018-05-09T01:56:45.899Z,99.90
2018-05-09T01:59:31.231Z,99.90
2018-05-09T02:02:00.123Z,99.90
2018-05-09T02:04:28.986Z,99.90
2018-05-09T02:06:57.157Z,99.90
2018-05-09T02:09:29.704Z,99.90
2018-05-09T02:11:57.811Z,99.90
2018-05-09T02:14:25.951Z,99.90
2018-05-09T02:16:54.069Z,99.90
2018-05-09T02:19:22.238Z,99.90
2018-05-09T02:21:50.343Z,99.90
2018-05-09T02:24:18.455Z,99.90
2018-05-09T02:26:46.583Z,99.90
2018-05-09T02:29:28.697Z,99.90
2018-05-09T02:31:56.812Z,99.90
2018-05-09T02:34:25.012Z,99.90
2018-05-09T02:36:53.887Z,99.90
2018-05-09T02:40:00.023Z,99.90
2018-05-09T02:42:28.138Z,99.90
2018-05-09T02:44:57.059Z,99.90
2018-05-09T02:47:25.208Z,99.90
2018-05-09T02:49:53.435Z,99.90
2018-05-09T02:52:21.496Z,99.90
2018-05-09T02:54:49.642Z,99.90
2018-05-09T02:57:18.508Z,99.90
2018-05-09T02:59:47.622Z,99.90
2018-05-09T03:02:15.731Z,99.90
2018-05-09T03:04:43.820Z,99.90
2018-05-09T03:07:11.963Z,99.90
2018-05-09T03:09:52.212Z,99.90
2018-05-09T03:12:20.364Z,99.90
2018-05-09T03:14:48.491Z,99.90
2018-05-09T03:17:16.612Z,99.90
2018-05-09T03:19:58.188Z,99.90
2018-05-09T03:22:27.454Z,99.90
2018-05-09T03:24:55.568Z,99.90
2018-05-09T03:27:24.467Z,99.90
2018-05-09T03:29:54.693Z,99.90
2018-05-09T03:32:22.694Z,99.90
2018-05-09T03:34:50.755Z,99.90
2018-05-09T03:37:18.826Z,99.90
2018-05-09T03:40:03.984Z,99.90
2018-05-09T03:42:32.062Z,99.90
2018-05-09T03:45:00.135Z,99.90
2018-05-09T03:47:28.214Z,99.90
2018-05-09T03:50:05.826Z,99.90
2018-05-09T03:52:33.923Z,99.90
2018-05-09T03:55:02.002Z,99.90
2018-05-09T03:57:30.846Z,99.90
2018-05-09T04:00:07.262Z,99.90
2018-05-09T04:02:53.308Z,99.90
2018-05-09T04:05:39.029Z,99.90
2018-05-09T04:08:25.697Z,99.90
2018-05-09T04:10:53.775Z,99.90
2018-05-09T04:13:21.867Z,99.90
2018-05-09T04:15:49.960Z,99.90
2018-05-09T04:18:18.827Z,99.90
2018-05-09T04:20:54.621Z,99.90
2018-05-09T04:23:22.669Z,99.90
2018-05-09T04:25:50.833Z,99.90
2018-05-09T04:28:18.959Z,99.90
2018-05-09T04:31:04.611Z,99.90
2018-05-09T04:33:33.511Z,99.90
2018-05-09T04:36:01.664Z,99.90
2018-05-09T04:38:32.519Z,99.90
2018-05-09T04:41:00.664Z,99.90
2018-05-09T04:43:28.751Z,99.90
2018-05-09T04:45:57.603Z,99.90
2018-05-09T04:48:25.675Z,99.90
2018-05-09T04:50:53.763Z,99.90
2018-05-09T04:53:21.834Z,99.90
2018-05-09T04:55:49.958Z,99.90
2018-05-09T04:58:18.039Z,99.90
2018-05-09T05:00:53.834Z,99.90
2018-05-09T05:03:21.914Z,99.90
2018-05-09T05:05:50.757Z,99.90
2018-05-09T05:08:18.855Z,99.90
2018-05-09T05:10:51.534Z,99.90
2018-05-09T05:13:19.606Z,99.90
2018-05-09T05:15:47.710Z,99.90
2018-05-09T05:18:16.543Z,99.90
2018-05-09T05:20:51.915Z,99.90
2018-05-09T05:23:20.003Z,99.90
2018-05-09T05:25:48.903Z,99.90
2018-05-09T05:28:17.796Z,99.90
2018-05-09T05:30:47.570Z,99.90
2018-05-09T05:33:15.658Z,99.90
2018-05-09T05:35:43.745Z,99.90
2018-05-09T05:38:12.590Z,99.90
2018-05-09T05:40:41.597Z,99.90
2018-05-09T05:43:09.669Z,99.90
2018-05-09T05:45:37.781Z,99.90
2018-05-09T05:48:05.864Z,99.90
2018-05-09T05:54:09.735Z,99.60
2018-05-09T05:56:37.822Z,99.60
2018-05-09T05:59:05.894Z,98.90
2018-05-09T06:01:33.975Z,99.10
2018-05-09T06:04:02.046Z,99.60
2018-05-09T06:06:30.972Z,99.30
2018-05-09T06:08:59.055Z,99.30
2018-05-09T06:11:27.983Z,98.30
2018-05-09T06:13:56.121Z,98.20
2018-05-09T06:16:24.255Z,98.50
2018-05-09T06:18:54.103Z,98.30
2018-05-09T06:21:22.251Z,98.30
2018-05-09T06:23:50.466Z,98.00
2018-05-09T06:26:19.303Z,97.10
2018-05-09T06:28:47.415Z,97.00
2018-05-09T06:31:15.567Z,96.20
2018-05-09T06:33:43.715Z,95.80
2018-05-09T06:36:12.603Z,95.00
2018-05-09T06:38:44.902Z,94.30
2018-05-09T06:41:13.046Z,94.30
2018-05-09T06:43:41.999Z,94.60
2018-05-09T06:46:10.086Z,94.60
2018-05-09T06:48:47.312Z,95.00
2018-05-09T06:51:15.406Z,92.30
2018-05-09T06:53:43.623Z,92.10
2018-05-09T06:56:11.732Z,91.00
2018-05-09T06:58:54.348Z,90.20
2018-05-09T07:01:22.457Z,88.80
2018-05-09T07:03:50.573Z,87.20
2018-05-09T07:06:19.870Z,83.90
2018-05-09T07:08:52.251Z,83.00
2018-05-09T07:11:20.359Z,83.00
2018-05-09T07:13:48.511Z,81.80
2018-05-09T07:16:16.642Z,81.10
2018-05-09T07:18:47.962Z,81.10
2018-05-09T07:21:16.112Z,80.20
2018-05-09T07:23:45.009Z,78.20
2018-05-09T07:26:13.123Z,78.20
2018-05-09T07:28:48.631Z,79.70
2018-05-09T07:31:16.775Z,81.50
2018-05-09T07:33:44.915Z,81.00
2018-05-09T07:36:13.071Z,80.20
2018-05-09T07:38:42.147Z,79.00
2018-05-09T07:41:10.264Z,79.50
2018-05-09T07:43:38.722Z,77.10
2018-05-09T07:46:06.839Z,77.10
2018-05-09T07:48:34.960Z,76.60
2018-05-09T07:51:03.103Z,78.80
2018-05-09T07:53:31.347Z,78.00
2018-05-09T07:56:00.263Z,78.00
2018-05-09T07:58:28.375Z,78.00
2018-05-09T08:00:56.471Z,76.40
2018-05-09T08:03:24.591Z,76.10
2018-05-09T08:05:52.721Z,74.90
2018-05-09T08:08:20.844Z,74.90
2018-05-09T08:10:50.930Z,76.00
2018-05-09T08:13:19.815Z,73.90
2018-05-09T08:15:47.928Z,73.90
2018-05-09T08:18:16.030Z,72.30
2018-05-09T08:21:01.845Z,73.20
2018-05-09T08:23:30.777Z,72.50
2018-05-09T08:25:58.888Z,72.50
2018-05-09T08:28:26.995Z,71.10
2018-05-09T08:30:55.106Z,71.40
2018-05-09T08:33:23.227Z,71.80
2018-05-09T08:35:52.091Z,69.70
2018-05-09T08:38:20.188Z,69.50
2018-05-09T08:41:01.346Z,68.00
2018-05-09T08:43:29.653Z,68.00
2018-05-09T08:45:58.423Z,70.90
2018-05-09T08:48:27.319Z,68.90
2018-05-09T08:50:56.207Z,71.30
2018-05-09T08:53:25.095Z,69.90
2018-05-09T08:55:54.023Z,70.20
2018-05-09T08:58:22.144Z,70.10
2018-05-09T09:00:51.284Z,67.40
2018-05-09T09:03:19.399Z,69.00
2018-05-09T09:05:47.589Z,67.90
2018-05-09T09:08:15.762Z,67.60
2018-05-09T09:10:53.569Z,65.30
2018-05-09T09:13:21.647Z,65.90
2018-05-09T09:15:50.523Z,64.30
2018-05-09T09:18:19.425Z,61.90
2018-05-09T09:20:56.878Z,61.70
2018-05-09T09:23:24.959Z,61.00
2018-05-09T09:25:58.788Z,57.70
2018-05-09T09:28:27.647Z,59.60
2018-05-09T09:30:55.723Z,59.60
2018-05-09T09:33:23.791Z,58.00
2018-05-09T09:35:51.882Z,60.00
2018-05-09T09:38:19.959Z,59.50
2018-05-09T09:40:48.038Z,57.80
2018-05-09T09:43:16.902Z,58.70
2018-05-09T09:45:45.045Z,58.00
2018-05-09T09:48:13.192Z,58.70
2018-05-09T09:50:41.347Z,57.80
2018-05-09T09:53:10.212Z,53.90
2018-05-09T09:55:38.403Z,53.80
2018-05-09T09:58:06.571Z,52.80
2018-05-09T10:00:34.704Z,54.90
2018-05-09T10:03:03.395Z,52.30
2018-05-09T10:05:31.515Z,53.00
2018-05-09T10:08:00.415Z,50.10
2018-05-09T10:10:29.290Z,52.30
2018-05-09T10:12:57.378Z,52.20
2018-05-09T10:15:25.531Z,51.80
2018-05-09T10:17:53.655Z,49.80
2018-05-09T10:20:21.795Z,45.40
2018-05-09T10:22:49.955Z,46.60
2018-05-09T10:25:18.047Z,44.40
2018-05-09T10:27:46.244Z,43.60
2018-05-09T10:30:16.258Z,42.80
2018-05-09T10:32:44.406Z,41.80
2018-05-09T10:35:13.320Z,43.40
2018-05-09T10:37:41.521Z,43.40
2018-05-09T10:40:13.607Z,40.50
2018-05-09T10:42:41.745Z,40.50
2018-05-09T10:45:09.839Z,37.40
2018-05-09T10:47:38.022Z,38.20
2018-05-09T10:50:16.500Z,37.40
2018-05-09T10:52:44.650Z,37.40
2018-05-09T10:55:12.754Z,41.20
2018-05-09T10:57:40.898Z,43.00
2018-05-09T11:00:09.959Z,42.00
2018-05-09T11:02:38.936Z,38.90
2018-05-09T11:05:07.078Z,38.90
2018-05-09T11:07:35.226Z,36.40
2018-05-09T11:10:03.360Z,38.10
2018-05-09T11:12:31.555Z,36.00
2018-05-09T11:15:00.457Z,36.20
2018-05-09T11:17:28.688Z,36.20
2018-05-09T11:20:04.375Z,36.50
2018-05-09T11:22:32.528Z,34.70
2018-05-09T11:25:01.458Z,32.80
2018-05-09T11:27:29.645Z,32.70
2018-05-09T11:30:01.970Z,32.30
2018-05-09T11:32:30.088Z,32.80
2018-05-09T11:34:58.248Z,34.00
2018-05-09T11:37:26.341Z,34.90
2018-05-09T11:39:55.363Z,35.60
2018-05-09T11:42:23.448Z,34.60
2018-05-09T11:44:51.624Z,34.00
2018-05-09T11:47:19.631Z,33.30
2018-05-09T11:49:47.708Z,33.70
2018-05-09T11:52:15.807Z,35.20
2018-05-09T11:54:43.920Z,34.90
2018-05-09T11:57:12.787Z,32.70
2018-05-09T11:59:40.895Z,32.60
2018-05-09T12:02:09.833Z,30.90
2018-05-09T12:04:37.959Z,30.80
2018-05-09T12:07:06.124Z,30.70
2018-05-09T12:09:52.196Z,30.00
2018-05-09T12:12:21.303Z,30.00
2018-05-09T12:14:50.235Z,31.80
2018-05-09T12:17:18.358Z,31.80
2018-05-09T12:19:46.507Z,32.10
2018-05-09T12:22:14.600Z,33.20
2018-05-09T12:24:42.822Z,34.60
2018-05-09T12:27:10.895Z,35.30
2018-05-09T12:29:39.000Z,34.10
2018-05-09T12:32:07.102Z,31.60
2018-05-09T12:34:35.970Z,31.20
2018-05-09T12:37:04.139Z,31.00
2018-05-09T12:39:33.206Z,28.80
2018-05-09T12:42:01.346Z,29.00
2018-05-09T12:44:29.466Z,29.50
2018-05-09T12:46:57.636Z,26.40
2018-05-09T12:49:25.832Z,27.20
2018-05-09T12:51:53.994Z,27.50
2018-05-09T12:54:22.448Z,27.40
2018-05-09T12:56:50.555Z,28.20
2018-05-09T12:59:23.711Z,28.10
2018-05-09T13:01:51.847Z,27.30
2018-05-09T13:04:20.793Z,27.90
2018-05-09T13:06:48.997Z,27.90
2018-05-09T13:09:17.925Z,28.80
2018-05-09T13:11:46.828Z,30.40
2018-05-09T13:14:14.967Z,30.40
2018-05-09T13:19:12.531Z,31.30
2018-05-09T13:21:41.462Z,31.40
2018-05-09T13:24:09.578Z,31.30
2018-05-09T13:26:37.711Z,30.40
2018-05-09T13:29:14.079Z,29.60
2018-05-09T13:31:42.263Z,29.50
2018-05-09T13:34:11.108Z,29.00
2018-05-09T13:36:40.994Z,28.80
2018-05-09T13:39:09.091Z,28.90
2018-05-09T13:41:37.999Z,28.20
2018-05-09T13:44:06.103Z,28.10
2018-05-09T13:46:34.187Z,29.10
2018-05-09T13:49:02.291Z,30.50
2018-05-09T13:51:31.768Z,32.00
2018-05-09T13:53:59.959Z,32.00
2018-05-09T13:56:28.066Z,34.00
2018-05-09T13:58:56.207Z,34.50
2018-05-09T14:01:25.079Z,33.70
2018-05-09T14:03:53.191Z,33.70
2018-05-09T14:06:21.312Z,33.70
2018-05-09T14:08:49.423Z,30.10
2018-05-09T14:11:17.576Z,29.00
2018-05-09T14:13:45.737Z,28.30
2018-05-09T14:16:13.875Z,27.70
2018-05-09T14:18:43.982Z,27.40
2018-05-09T14:21:12.155Z,27.70
2018-05-09T14:23:40.299Z,25.20
2018-05-09T14:26:09.182Z,25.70
2018-05-09T14:28:48.026Z,25.70
2018-05-09T14:31:16.895Z,24.40
2018-05-09T14:33:44.999Z,24.40
2018-05-09T14:36:13.086Z,24.00
2018-05-09T14:38:45.255Z,25.40
2018-05-09T14:41:13.339Z,25.50
2018-05-09T14:43:41.423Z,25.10
2018-05-09T14:46:09.515Z,24.80
2018-05-09T14:48:38.491Z,24.70
2018-05-09T14:51:06.570Z,25.40
2018-05-09T14:53:34.649Z,26.30
2018-05-09T14:56:02.730Z,27.90
2018-05-09T14:58:30.801Z,28.60
2018-05-09T15:00:58.885Z,27.90
2018-05-09T15:03:27.730Z,27.00
2018-05-09T15:05:55.815Z,27.00
2018-05-09T15:08:23.951Z,28.10
2018-05-09T15:11:16.510Z,30.50
2018-05-09T15:13:44.578Z,28.50
2018-05-09T15:16:12.666Z,28.30
2018-05-09T15:18:40.747Z,28.70
2018-05-09T15:21:08.830Z,28.30
2018-05-09T15:23:36.897Z,28.30
2018-05-09T15:26:05.001Z,28.10
2018-05-09T15:28:33.845Z,26.50
2018-05-09T15:31:01.927Z,26.50
2018-05-09T15:33:30.030Z,26.60
2018-05-09T15:35:58.923Z,27.90
2018-05-09T15:38:27.039Z,27.80
2018-05-09T15:40:55.136Z,28.90
2018-05-09T15:43:23.345Z,28.10
2018-05-09T15:45:51.462Z,28.70
2018-05-09T15:48:19.571Z,28.20
2018-05-09T15:50:51.538Z,29.60
2018-05-09T15:53:20.854Z,31.10
2018-05-09T15:55:48.988Z,31.70
2018-05-09T15:58:18.272Z,34.10
2018-05-09T16:00:56.892Z,34.50
2018-05-09T16:03:24.988Z,35.10
2018-05-09T16:05:53.145Z,36.60
2018-05-09T16:08:21.251Z,36.50
2018-05-09T16:10:49.360Z,38.40
2018-05-09T16:13:17.463Z,38.70
2018-05-09T16:15:45.553Z,39.10
2018-05-09T16:18:14.480Z,41.10
2018-05-09T16:20:44.607Z,41.10
2018-05-09T16:23:12.764Z,42.60
2018-05-09T16:25:40.922Z,44.30
2018-05-09T16:28:09.838Z,46.20
2018-05-09T16:30:37.929Z,46.20
2018-05-09T16:33:06.023Z,46.60
2018-05-09T16:35:34.173Z,46.90
2018-05-09T16:38:02.318Z,46.90
2018-05-09T16:40:30.543Z,56.30
2018-05-09T16:42:58.699Z,79.70
2018-05-09T16:45:26.862Z,82.40
2018-05-09T16:47:56.116Z,89.80
2018-05-09T16:50:37.507Z,94.80
2018-05-09T16:53:06.421Z,98.40
2018-05-09T16:55:34.569Z,98.30
2018-05-09T16:58:03.485Z,99.90
2018-05-09T17:00:34.917Z,99.90
2018-05-09T17:03:03.150Z,99.90
2018-05-09T17:05:31.669Z,99.90
2018-05-09T17:07:59.856Z,99.90
2018-05-09T17:10:28.017Z,99.90
2018-05-09T17:12:56.914Z,99.90
2018-05-09T17:15:25.070Z,99.90
2018-05-09T17:17:53.988Z,99.90
2018-05-09T17:20:23.127Z,99.90
2018-05-09T17:22:51.276Z,99.90
2018-05-09T17:25:19.404Z,99.90
2018-05-09T17:27:48.291Z,99.90
2018-05-09T17:30:16.667Z,99.90
2018-05-09T17:32:44.760Z,99.90
2018-05-09T17:35:12.927Z,98.50
2018-05-09T17:37:41.088Z,99.90
2018-05-09T17:40:35.388Z,96.40
2018-05-09T17:43:03.568Z,96.70
2018-05-09T17:45:31.725Z,97.60
2018-05-09T17:50:35.242Z,96.80
2018-05-09T17:53:04.156Z,98.50
2018-05-09T17:55:33.149Z,98.50
2018-05-09T17:58:02.449Z,98.30
2018-05-09T18:00:33.661Z,98.60
2018-05-09T18:03:02.559Z,99.90
2018-05-09T18:05:30.780Z,99.90
2018-05-09T18:07:58.891Z,99.90
2018-05-09T18:10:29.008Z,99.90
2018-05-09T18:12:57.160Z,99.90
2018-05-09T18:15:25.265Z,99.90
2018-05-09T18:17:54.139Z,99.90
2018-05-09T18:20:27.775Z,99.90
2018-05-09T18:22:55.911Z,99.90
2018-05-09T18:25:24.055Z,99.90
2018-05-09T18:27:52.180Z,99.90
2018-05-09T18:30:29.773Z,99.90
2018-05-09T18:32:57.967Z,99.90
2018-05-09T18:35:26.123Z,99.90
2018-05-09T18:37:55.059Z,99.90
2018-05-09T18:40:36.880Z,99.90
2018-05-09T18:43:05.043Z,99.90
2018-05-09T18:45:33.195Z,99.90
2018-05-09T18:48:01.325Z,99.90
2018-05-09T18:50:43.322Z,99.90
2018-05-09T18:53:11.493Z,99.90
2018-05-09T18:55:40.422Z,99.90
2018-05-09T18:58:08.541Z,99.90
2018-05-09T19:00:50.682Z,99.90
2018-05-09T19:03:18.779Z,99.90
2018-05-09T19:05:46.904Z,99.90
2018-05-09T19:08:15.812Z,99.90
2018-05-09T19:10:51.351Z,99.90
2018-05-09T19:13:20.238Z,99.90
2018-05-09T19:15:48.356Z,99.90
2018-05-09T19:18:16.497Z,99.90
2018-05-09T19:20:45.668Z,99.90
2018-05-09T19:23:14.632Z,99.90
2018-05-09T19:25:42.727Z,99.90
2018-05-09T19:28:10.851Z,99.90
2018-05-09T19:30:44.043Z,99.90
2018-05-09T19:33:12.157Z,99.90
2018-05-09T19:35:40.292Z,99.90
2018-05-09T19:38:08.407Z,99.90
2018-05-09T19:40:38.247Z,99.90
2018-05-09T19:43:06.408Z,99.90
2018-05-09T19:45:35.322Z,99.90
2018-05-09T19:48:03.476Z,99.90
2018-05-09T19:50:31.675Z,99.90
2018-05-09T19:52:59.769Z,99.90
2018-05-09T19:55:27.876Z,99.90
2018-05-09T19:57:56.732Z,99.90
2018-05-09T20:00:24.837Z,99.90
2018-05-09T20:02:53.721Z,99.90
2018-05-09T20:05:21.835Z,99.90
2018-05-09T20:07:50.019Z,99.90
2018-05-09T20:10:19.085Z,99.90
2018-05-09T20:12:47.983Z,99.90
2018-05-09T20:15:16.195Z,99.90
2018-05-09T20:17:44.328Z,99.90
2018-05-09T20:20:12.456Z,99.90
2018-05-09T20:22:40.595Z,99.90
2018-05-09T20:25:08.699Z,99.90
2018-05-09T20:27:36.883Z,99.90
2018-05-09T20:30:10.524Z,99.90
2018-05-09T20:32:40.465Z,99.90
2018-05-09T20:35:08.607Z,99.90
2018-05-09T20:37:36.746Z,99.90
2018-05-09T20:40:05.897Z,99.90
2018-05-09T20:42:34.049Z,99.90
2018-05-09T20:45:02.222Z,99.90
2018-05-09T20:47:30.372Z,99.90
2018-05-09T20:50:00.410Z,99.90
2018-05-09T20:52:28.527Z,99.90
2018-05-09T20:54:56.648Z,99.90
2018-05-09T20:57:25.560Z,99.90
2018-05-09T20:59:59.255Z,99.90
2018-05-09T21:02:27.383Z,99.90
2018-05-09T21:04:55.532Z,99.90
2018-05-09T21:07:23.692Z,99.90
2018-05-09T21:09:53.818Z,99.90
2018-05-09T21:12:21.973Z,99.90
2018-05-09T21:14:50.142Z,99.90
2018-05-09T21:17:18.231Z,99.90
2018-05-09T21:19:48.307Z,99.90
2018-05-09T21:22:16.432Z,99.90
2018-05-09T21:24:44.576Z,99.90
2018-05-09T21:27:12.782Z,99.90
2018-05-09T21:29:40.868Z,99.90
2018-05-09T21:32:09.074Z,99.90
2018-05-09T21:34:37.999Z,99.90
2018-05-09T21:37:06.137Z,99.90
2018-05-09T21:39:38.768Z,99.90
2018-05-09T21:42:06.905Z,99.90
2018-05-09T21:44:35.069Z,99.90
2018-05-09T21:47:03.976Z,99.90
2018-05-09T21:49:33.059Z,99.90
2018-05-09T21:52:01.965Z,99.90
2018-05-09T21:54:30.133Z,99.90
2018-05-09T21:56:58.292Z,99.90
2018-05-09T21:59:35.409Z,99.90
2018-05-09T22:02:03.552Z,99.90
2018-05-09T22:04:32.441Z,99.90
2018-05-09T22:07:06.857Z,99.90
2018-05-09T22:09:53.056Z,99.90
2018-05-09T22:12:21.272Z,99.90
2018-05-09T22:14:49.471Z,99.90
2018-05-09T22:17:17.645Z,99.90
2018-05-09T22:20:14.493Z,99.90
2018-05-09T22:22:42.660Z,99.90
2018-05-09T22:25:10.785Z,99.90
2018-05-09T22:27:38.960Z,99.90
2018-05-09T22:30:25.371Z,99.90
2018-05-09T22:32:53.529Z,99.90
2018-05-09T22:35:21.656Z,99.90
2018-05-09T22:37:49.835Z,99.90
2018-05-09T22:40:35.032Z,99.90
2018-05-09T22:43:03.156Z,99.90
2018-05-09T22:45:31.300Z,99.90
2018-05-09T22:47:59.453Z,99.90
2018-05-09T22:50:58.971Z,99.90
2018-05-09T22:53:27.127Z,99.90
2018-05-09T22:55:56.015Z,99.90
2018-05-09T22:58:24.880Z,99.90
2018-05-09T23:00:52.991Z,99.90
2018-05-09T23:03:21.109Z,99.90
2018-05-09T23:05:49.264Z,99.90
2018-05-09T23:08:18.184Z,99.90
2018-05-09T23:10:48.262Z,99.90
2018-05-09T23:13:16.375Z,99.90
2018-05-09T23:15:44.567Z,99.90
2018-05-09T23:18:13.458Z,99.90
2018-05-09T23:20:42.406Z,99.90
2018-05-09T23:23:11.291Z,99.90
2018-05-09T23:25:39.440Z,99.90
2018-05-09T23:28:07.560Z,99.90
2018-05-09T23:30:35.715Z,99.90
2018-05-09T23:33:03.849Z,99.90
2018-05-09T23:35:32.732Z,99.90
2018-05-09T23:38:00.907Z,99.90
2018-05-09T23:40:38.928Z,99.90
2018-05-09T23:43:07.020Z,99.90
2018-05-09T23:45:35.216Z,99.90
2018-05-09T23:48:03.348Z,99.90
2018-05-09T23:50:45.444Z,99.90
2018-05-09T23:53:14.298Z,99.90
2018-05-09T23:55:42.471Z,99.90
2018-05-09T23:58:10.608Z,99.90
